Terminal Aerodrome Forecast
Issued by NWS

Home | Current Version | Previous Version | Graphics & Text | Print | Product List | Glossary On
Versions: 1 2 3 4 5 6 7 8 9 10 11 12 13 14 15 16 17 18 19 20 21 22 23 24 25 26 27 28 29 30 31 32 33 34 35 36 37 38 39 40 41 42 43 44 45 46 47 48 49 50
000
FTUS43 KLOT 222159 AAB
TAFGYY
TAF AMD
KGYY 222159Z 2222/2318 05010KT P6SM BKN250
     FM230100 07006KT P6SM BKN250
     FM231000 14005KT P6SM SCT100 BKN250
     FM231600 16008KT P6SM BKN070=

USA.gov is the U.S. government's official web portal to all federal, state and local government web resources and services.